createdAt,value
2018-07-15T00:00:17.235Z,75.10
2018-07-15T00:02:20.743Z,76.10
2018-07-15T00:04:24.272Z,74.90
2018-07-15T00:06:27.767Z,74.00
2018-07-15T00:08:31.295Z,73.10
2018-07-15T00:10:43.275Z,72.30
2018-07-15T00:12:46.844Z,74.30
2018-07-15T00:14:50.327Z,75.70
2018-07-15T00:16:53.814Z,76.10
2018-07-15T00:18:57.428Z,78.00
2018-07-15T00:21:01.009Z,78.80
2018-07-15T00:23:04.631Z,79.80
2018-07-15T00:25:08.184Z,80.80
2018-07-15T00:27:11.672Z,80.80
2018-07-15T00:29:15.206Z,81.60
2018-07-15T00:31:18.770Z,81.40
2018-07-15T00:33:22.545Z,81.90
2018-07-15T00:35:26.103Z,83.10
2018-07-15T00:37:29.736Z,84.70
2018-07-15T00:39:33.277Z,85.60
2018-07-15T00:41:36.828Z,86.30
2018-07-15T00:43:40.490Z,84.80
2018-07-15T00:45:44.071Z,85.30
2018-07-15T00:47:47.656Z,85.10
2018-07-15T00:49:51.166Z,85.20
2018-07-15T00:51:54.663Z,86.70
2018-07-15T00:53:58.266Z,87.60
2018-07-15T00:56:01.812Z,88.40
2018-07-15T00:58:05.397Z,87.80
2018-07-15T01:00:09.112Z,88.30
2018-07-15T01:02:12.612Z,88.30
2018-07-15T01:04:16.300Z,87.30
2018-07-15T01:06:19.847Z,87.00
2018-07-15T01:08:23.347Z,87.10
2018-07-15T01:10:26.871Z,87.50
2018-07-15T01:12:30.404Z,89.50
2018-07-15T01:14:33.935Z,89.00
2018-07-15T01:16:38.572Z,87.40
2018-07-15T01:18:42.118Z,85.40
2018-07-15T01:20:45.629Z,83.20
2018-07-15T01:22:49.114Z,82.00
2018-07-15T01:24:52.628Z,80.80
2018-07-15T01:26:56.189Z,80.10
2018-07-15T01:28:59.796Z,79.90
2018-07-15T01:31:03.511Z,79.40
2018-07-15T01:33:07.376Z,78.40
2018-07-15T01:35:10.924Z,77.50
2018-07-15T01:37:14.498Z,77.80
2018-07-15T01:39:17.999Z,78.80
2018-07-15T01:41:21.559Z,82.10
2018-07-15T01:43:25.087Z,82.50
2018-07-15T01:45:28.648Z,82.90
2018-07-15T01:47:32.159Z,85.10
2018-07-15T01:49:35.772Z,86.30
2018-07-15T01:51:39.271Z,85.80
2018-07-15T01:53:42.859Z,84.10
2018-07-15T01:55:46.363Z,82.80
2018-07-15T01:57:49.851Z,81.30
2018-07-15T01:59:53.360Z,80.10
2018-07-15T02:01:56.951Z,79.00
2018-07-15T02:04:00.523Z,79.20
2018-07-15T02:06:04.090Z,82.80
2018-07-15T02:08:07.584Z,84.90
2018-07-15T02:10:11.136Z,83.00
2018-07-15T02:12:14.618Z,82.40
2018-07-15T02:14:18.187Z,83.90
2018-07-15T02:16:21.688Z,83.60
2018-07-15T02:18:25.167Z,85.50
2018-07-15T02:20:28.782Z,85.90
2018-07-15T02:22:32.239Z,86.40
2018-07-15T02:24:35.815Z,86.90
2018-07-15T02:26:39.393Z,87.10
2018-07-15T02:28:42.934Z,88.50
2018-07-15T02:30:46.567Z,89.70
2018-07-15T02:32:50.098Z,90.10
2018-07-15T02:34:53.607Z,90.50
2018-07-15T02:36:57.112Z,91.30
2018-07-15T02:39:00.600Z,90.50
2018-07-15T02:41:04.227Z,88.40
2018-07-15T02:43:07.927Z,85.70
2018-07-15T02:45:11.453Z,83.60
2018-07-15T02:47:15.080Z,82.20
2018-07-15T02:49:18.655Z,82.10
2018-07-15T02:53:25.375Z,81.40
2018-07-15T02:55:28.979Z,80.90
2018-07-15T02:57:32.524Z,82.40
2018-07-15T02:59:36.160Z,84.20
2018-07-15T03:01:39.875Z,87.80
2018-07-15T03:03:43.377Z,89.50
2018-07-15T03:05:46.975Z,90.00
2018-07-15T03:07:50.595Z,89.00
2018-07-15T03:09:54.107Z,89.60
2018-07-15T03:11:57.592Z,89.10
2018-07-15T03:14:01.146Z,90.40
2018-07-15T03:16:04.687Z,91.30
2018-07-15T03:18:08.310Z,92.50
2018-07-15T03:20:11.847Z,91.90
2018-07-15T03:22:15.410Z,91.70
2018-07-15T03:24:18.955Z,91.30
2018-07-15T03:26:22.635Z,91.10
2018-07-15T03:28:26.175Z,91.00
2018-07-15T03:30:29.695Z,90.40
2018-07-15T03:32:33.311Z,90.00
2018-07-15T03:34:36.787Z,89.50
2018-07-15T03:36:40.284Z,90.10
2018-07-15T03:38:43.782Z,90.60
2018-07-15T03:40:47.347Z,91.00
2018-07-15T03:42:50.897Z,91.20
2018-07-15T03:44:54.470Z,91.50
2018-07-15T03:46:58.009Z,92.20
2018-07-15T03:49:01.702Z,92.90
2018-07-15T03:51:05.447Z,93.50
2018-07-15T03:53:08.997Z,93.60
2018-07-15T03:55:12.554Z,93.30
2018-07-15T03:57:16.075Z,92.50
2018-07-15T03:59:19.603Z,92.30
2018-07-15T04:01:23.106Z,92.10
2018-07-15T04:03:26.600Z,92.20
2018-07-15T04:05:30.094Z,92.60
2018-07-15T04:07:33.771Z,93.10
2018-07-15T04:09:37.239Z,93.30
2018-07-15T04:11:40.876Z,92.90
2018-07-15T04:13:44.369Z,92.30
2018-07-15T04:15:47.878Z,92.80
2018-07-15T04:17:56.552Z,92.70
2018-07-15T04:20:00.101Z,93.10
2018-07-15T04:22:03.751Z,92.90
2018-07-15T04:24:07.224Z,93.70
2018-07-15T04:28:13.944Z,93.80
2018-07-15T04:30:17.469Z,93.30
2018-07-15T04:32:21.000Z,92.90
2018-07-15T04:34:24.543Z,92.60
2018-07-15T04:36:28.067Z,92.70
2018-07-15T04:38:31.642Z,91.90
2018-07-15T04:40:35.129Z,91.50
2018-07-15T04:42:38.798Z,91.00
2018-07-15T04:44:42.282Z,90.30
2018-07-15T04:46:45.872Z,89.80
2018-07-15T04:48:49.438Z,89.00
2018-07-15T04:50:52.947Z,89.50
2018-07-15T04:52:56.435Z,90.30
2018-07-15T04:55:00.090Z,90.10
2018-07-15T04:57:03.644Z,89.20
2018-07-15T04:59:07.118Z,87.80
2018-07-15T05:01:10.611Z,86.30
2018-07-15T05:03:14.108Z,84.60
2018-07-15T05:05:17.587Z,84.60
2018-07-15T05:07:21.236Z,83.80
2018-07-15T05:09:24.849Z,83.70
2018-07-15T05:11:28.349Z,83.00
2018-07-15T05:13:31.851Z,83.40
2018-07-15T05:15:35.371Z,83.80
2018-07-15T05:17:38.856Z,84.20
2018-07-15T05:19:42.299Z,84.20
2018-07-15T05:21:45.794Z,83.90
2018-07-15T05:23:49.313Z,83.60
2018-07-15T05:25:52.797Z,83.50
2018-07-15T05:27:56.283Z,83.70
2018-07-15T05:29:59.814Z,84.20
2018-07-15T05:32:03.389Z,83.50
2018-07-15T05:34:06.899Z,84.00
2018-07-15T05:36:10.456Z,84.10
2018-07-15T05:38:13.981Z,84.20
2018-07-15T05:40:17.520Z,83.80
2018-07-15T05:42:21.115Z,84.10
2018-07-15T05:44:24.783Z,83.80
2018-07-15T05:46:28.231Z,84.30
2018-07-15T05:48:31.760Z,84.00
2018-07-15T05:50:35.303Z,84.40
2018-07-15T05:52:38.819Z,83.50
2018-07-15T05:54:42.320Z,83.10
2018-07-15T05:56:45.922Z,82.20
2018-07-15T05:58:49.779Z,81.90
2018-07-15T06:00:53.286Z,82.10
2018-07-15T06:02:56.814Z,82.30
2018-07-15T06:05:00.289Z,82.70
2018-07-15T06:07:03.778Z,83.60
2018-07-15T06:09:07.609Z,83.80
2018-07-15T06:11:11.300Z,83.70
2018-07-15T06:13:14.803Z,82.30
2018-07-15T06:15:18.298Z,81.90
2018-07-15T06:17:21.852Z,81.70
2018-07-15T06:19:25.320Z,81.50
2018-07-15T06:23:32.039Z,81.90
2018-07-15T06:25:35.557Z,80.40
2018-07-15T06:27:39.059Z,79.90
2018-07-15T06:29:42.526Z,79.70
2018-07-15T06:31:46.034Z,80.40
2018-07-15T06:33:49.589Z,80.10
2018-07-15T06:35:53.100Z,80.40
2018-07-15T06:37:56.629Z,80.10
2018-07-15T06:40:00.104Z,79.00
2018-07-15T06:42:03.709Z,79.20
2018-07-15T06:44:07.543Z,80.10
2018-07-15T06:46:11.052Z,79.90
2018-07-15T06:50:17.730Z,79.70
2018-07-15T06:52:21.423Z,79.40
2018-07-15T06:54:24.998Z,80.40
2018-07-15T06:56:28.474Z,80.10
2018-07-15T06:58:31.982Z,79.20
2018-07-15T07:00:35.702Z,79.30
2018-07-15T07:02:39.292Z,79.40
2018-07-15T07:04:42.927Z,79.80
2018-07-15T07:06:46.449Z,79.90
2018-07-15T07:08:50.030Z,78.40
2018-07-15T07:10:53.565Z,77.80
2018-07-15T07:12:57.316Z,78.10
2018-07-15T07:15:00.901Z,79.50
2018-07-15T07:17:04.451Z,78.30
2018-07-15T07:19:07.991Z,77.80
2018-07-15T07:21:11.492Z,76.50
2018-07-15T07:23:15.888Z,76.90
2018-07-15T07:25:19.429Z,79.10
2018-07-15T07:27:22.972Z,80.40
2018-07-15T07:29:26.483Z,79.80
2018-07-15T07:31:29.997Z,78.10
2018-07-15T07:33:33.547Z,77.20
2018-07-15T07:35:37.067Z,76.20
2018-07-15T07:37:40.566Z,77.10
2018-07-15T07:39:44.045Z,75.20
2018-07-15T07:41:47.548Z,75.40
2018-07-15T07:43:51.496Z,75.00
2018-07-15T07:45:54.988Z,72.80
2018-07-15T07:47:58.490Z,72.90
2018-07-15T07:50:02.082Z,74.10
2018-07-15T07:52:06.260Z,73.00
2018-07-15T07:54:09.803Z,73.30
2018-07-15T07:56:13.413Z,73.10
2018-07-15T07:58:16.917Z,73.50
2018-07-15T08:00:20.426Z,72.30
2018-07-15T08:02:24.004Z,70.90
2018-07-15T08:04:27.523Z,69.40
2018-07-15T08:06:31.060Z,70.00
2018-07-15T08:08:34.581Z,67.00
2018-07-15T08:10:38.323Z,67.00
2018-07-15T08:12:41.830Z,66.40
2018-07-15T08:14:45.364Z,67.00
2018-07-15T08:16:49.136Z,66.10
2018-07-15T08:18:52.655Z,65.60
2018-07-15T08:20:56.159Z,66.80
2018-07-15T08:22:59.695Z,66.20
2018-07-15T08:25:03.479Z,65.40
2018-07-15T08:27:07.304Z,63.90
2018-07-15T08:29:10.811Z,63.80
2018-07-15T08:31:16.163Z,64.70
2018-07-15T08:33:19.740Z,64.50
2018-07-15T08:35:23.232Z,61.60
2018-07-15T08:37:26.740Z,60.40
2018-07-15T08:39:30.247Z,60.60
2018-07-15T08:41:33.775Z,59.90
2018-07-15T08:43:37.344Z,59.40
2018-07-15T08:45:40.967Z,58.30
2018-07-15T08:47:44.448Z,58.60
2018-07-15T08:51:51.161Z,59.60
2018-07-15T08:53:54.698Z,59.80
2018-07-15T08:55:58.346Z,59.20
2018-07-15T08:58:01.828Z,59.60
2018-07-15T09:00:05.653Z,58.70
2018-07-15T09:02:09.157Z,58.80
2018-07-15T09:04:12.700Z,59.00
2018-07-15T09:06:16.223Z,59.70
2018-07-15T09:08:19.732Z,57.10
2018-07-15T09:10:23.277Z,56.80
2018-07-15T09:12:26.883Z,58.10
2018-07-15T09:14:30.492Z,59.00
2018-07-15T09:16:34.222Z,60.10
2018-07-15T09:18:37.804Z,59.80
2018-07-15T09:20:41.272Z,58.40
2018-07-15T09:22:44.808Z,57.80
2018-07-15T09:24:48.625Z,58.10
2018-07-15T09:26:52.251Z,57.70
2018-07-15T09:28:55.790Z,59.00
2018-07-15T09:30:59.312Z,58.70
2018-07-15T09:33:02.943Z,58.10
2018-07-15T09:35:06.463Z,57.30
2018-07-15T09:37:09.973Z,54.70
2018-07-15T09:39:13.491Z,55.50
2018-07-15T09:41:17.007Z,55.00
2018-07-15T09:43:20.517Z,54.30
2018-07-15T09:45:24.032Z,50.70
2018-07-15T09:47:27.575Z,52.20
2018-07-15T09:49:31.118Z,51.40
2018-07-15T09:51:34.626Z,52.00
2018-07-15T09:53:38.221Z,53.30
2018-07-15T09:55:41.760Z,51.80
2018-07-15T09:57:45.311Z,51.30
2018-07-15T09:59:48.912Z,51.60
2018-07-15T10:01:52.437Z,53.10
2018-07-15T10:03:56.193Z,51.10
2018-07-15T10:05:59.711Z,50.30
2018-07-15T10:08:03.328Z,49.60
2018-07-15T10:10:06.951Z,49.70
2018-07-15T10:12:10.462Z,48.50
2018-07-15T10:14:14.008Z,48.50
2018-07-15T10:16:17.518Z,48.00
2018-07-15T10:18:21.038Z,47.70
2018-07-15T10:20:24.568Z,47.90
2018-07-15T10:22:28.091Z,48.50
2018-07-15T10:24:31.603Z,49.80
2018-07-15T10:26:35.312Z,49.70
2018-07-15T10:28:38.751Z,56.40
2018-07-15T10:30:42.379Z,59.80
2018-07-15T10:32:46.134Z,60.60
2018-07-15T10:34:49.714Z,61.50
2018-07-15T10:36:53.210Z,60.90
2018-07-15T10:38:56.753Z,59.10
2018-07-15T10:41:00.260Z,61.10
2018-07-15T10:43:03.777Z,59.10
2018-07-15T10:45:07.329Z,59.30
2018-07-15T10:47:10.894Z,59.30
2018-07-15T10:49:14.447Z,58.60
2018-07-15T10:51:18.048Z,59.20
2018-07-15T10:53:21.608Z,61.10
2018-07-15T10:55:25.264Z,61.90
2018-07-15T10:57:29.000Z,63.20
2018-07-15T10:59:32.568Z,62.70
2018-07-15T11:01:36.147Z,61.30
2018-07-15T11:03:39.811Z,62.70
2018-07-15T11:05:43.335Z,62.00
2018-07-15T11:07:46.825Z,61.90
2018-07-15T11:09:50.442Z,62.80
2018-07-15T11:11:54.103Z,59.60
2018-07-15T11:13:57.609Z,59.90
2018-07-15T11:16:01.164Z,58.30
2018-07-15T11:18:05.041Z,61.40
2018-07-15T11:20:08.553Z,61.10
2018-07-15T11:22:12.223Z,61.10
2018-07-15T11:24:15.769Z,60.30
2018-07-15T11:26:19.293Z,60.40
2018-07-15T11:28:22.783Z,59.70
2018-07-15T11:30:26.404Z,60.10
2018-07-15T11:32:29.970Z,61.60
2018-07-15T11:34:33.542Z,60.90
2018-07-15T11:36:37.143Z,61.50
2018-07-15T11:38:40.663Z,60.70
2018-07-15T11:40:44.158Z,61.70
2018-07-15T11:42:47.640Z,62.90
2018-07-15T11:44:51.197Z,61.30
2018-07-15T11:46:54.808Z,58.40
2018-07-15T11:48:58.570Z,57.90
2018-07-15T11:51:02.141Z,59.70
2018-07-15T11:53:05.792Z,57.70
2018-07-15T11:55:09.382Z,57.40
2018-07-15T11:57:12.910Z,58.50
2018-07-15T11:59:16.412Z,64.10
2018-07-15T12:01:20.108Z,67.00
2018-07-15T12:03:23.644Z,65.90
2018-07-15T12:05:27.211Z,68.10
2018-07-15T12:07:30.815Z,66.00
2018-07-15T12:09:34.355Z,67.00
2018-07-15T12:11:44.188Z,65.80
2018-07-15T12:13:47.739Z,63.00
2018-07-15T12:15:51.224Z,60.70
2018-07-15T12:17:54.734Z,59.40
2018-07-15T12:19:58.291Z,58.60
2018-07-15T12:22:01.890Z,56.50
2018-07-15T12:24:05.535Z,56.00
2018-07-15T12:26:09.059Z,56.60
2018-07-15T12:28:12.986Z,55.30
2018-07-15T12:30:16.576Z,56.10
2018-07-15T12:32:20.151Z,56.10
2018-07-15T12:34:23.816Z,55.50
2018-07-15T12:36:27.451Z,55.80
2018-07-15T12:40:34.241Z,56.70
2018-07-15T12:42:37.787Z,55.50
2018-07-15T12:44:41.324Z,56.30
2018-07-15T12:46:44.853Z,55.00
2018-07-15T12:48:48.668Z,53.80
2018-07-15T12:50:52.148Z,52.80
2018-07-15T12:52:55.923Z,51.20
2018-07-15T12:54:59.427Z,50.20
2018-07-15T12:57:03.815Z,50.60
2018-07-15T12:59:07.419Z,51.70
2018-07-15T13:01:10.961Z,53.20
2018-07-15T13:03:14.583Z,55.50
2018-07-15T13:05:18.112Z,58.30
2018-07-15T13:07:21.750Z,59.50
2018-07-15T13:09:25.369Z,59.90
2018-07-15T13:11:28.955Z,59.20
2018-07-15T13:13:32.537Z,58.70
2018-07-15T13:15:36.059Z,57.70
2018-07-15T13:17:39.579Z,58.80
2018-07-15T13:19:43.100Z,58.70
2018-07-15T13:21:46.655Z,58.90
2018-07-15T13:23:50.160Z,60.50
2018-07-15T13:25:53.713Z,61.20
2018-07-15T13:27:57.311Z,62.10
2018-07-15T13:30:00.886Z,62.70
2018-07-15T13:32:04.440Z,63.90
2018-07-15T13:34:08.145Z,66.70
2018-07-15T13:36:11.770Z,66.60
2018-07-15T13:38:15.312Z,68.10
2018-07-15T13:40:18.806Z,68.00
2018-07-15T13:42:22.358Z,67.30
2018-07-15T13:44:25.884Z,68.10
2018-07-15T13:46:29.454Z,70.00
2018-07-15T13:48:33.128Z,72.20
2018-07-15T13:50:36.738Z,72.40
2018-07-15T13:52:40.336Z,73.50
2018-07-15T13:54:43.908Z,74.20
2018-07-15T13:56:47.439Z,75.80
2018-07-15T13:58:50.944Z,77.20
2018-07-15T14:00:54.514Z,76.30
2018-07-15T14:02:58.040Z,76.20
2018-07-15T14:05:01.565Z,77.00
2018-07-15T14:07:05.185Z,77.40
2018-07-15T14:09:08.823Z,76.70
2018-07-15T14:11:12.388Z,76.70
2018-07-15T14:13:16.028Z,74.80
2018-07-15T14:15:19.671Z,74.10
2018-07-15T14:17:23.129Z,73.00
2018-07-15T14:21:29.888Z,73.00
2018-07-15T14:23:33.375Z,76.60
2018-07-15T14:25:36.943Z,82.10
2018-07-15T14:27:40.485Z,83.90
2018-07-15T14:29:44.059Z,89.30
2018-07-15T14:31:47.632Z,91.60
2018-07-15T14:33:51.268Z,91.90
2018-07-15T14:35:54.796Z,92.00
2018-07-15T14:37:58.392Z,92.00
2018-07-15T14:40:01.843Z,91.30
2018-07-15T14:42:06.079Z,92.00
2018-07-15T14:44:09.635Z,93.00
2018-07-15T14:46:13.159Z,93.10
2018-07-15T14:48:16.665Z,92.20
2018-07-15T14:50:20.199Z,93.40
2018-07-15T14:52:23.694Z,93.40
2018-07-15T14:54:27.217Z,94.50
2018-07-15T14:56:30.719Z,95.80
2018-07-15T14:58:34.267Z,96.10
2018-07-15T15:00:37.842Z,96.30
2018-07-15T15:02:41.350Z,96.20
2018-07-15T15:04:44.861Z,95.30
2018-07-15T15:06:48.471Z,95.10
2018-07-15T15:08:52.054Z,95.50
2018-07-15T15:12:58.806Z,94.50
2018-07-15T15:15:02.339Z,93.80
2018-07-15T15:17:05.995Z,93.10
2018-07-15T15:19:09.652Z,91.40
2018-07-15T15:21:13.214Z,90.70
2018-07-15T15:25:20.034Z,90.80
2018-07-15T15:27:24.062Z,88.60
2018-07-15T15:29:27.592Z,87.00
2018-07-15T15:31:31.126Z,85.70
2018-07-15T15:33:34.747Z,85.90
2018-07-15T15:35:40.935Z,86.30
2018-07-15T15:37:44.636Z,87.50
2018-07-15T15:39:48.255Z,85.80
2018-07-15T15:41:51.829Z,86.90
2018-07-15T15:43:55.339Z,86.20
2018-07-15T15:45:58.871Z,85.60
2018-07-15T15:48:02.364Z,86.40
2018-07-15T15:50:06.139Z,84.30
2018-07-15T15:52:09.655Z,79.40
2018-07-15T15:54:13.304Z,76.90
2018-07-15T15:56:16.907Z,77.40
2018-07-15T15:58:20.447Z,84.40
2018-07-15T16:00:24.383Z,83.60
2018-07-15T16:02:28.845Z,80.40
2018-07-15T16:04:32.354Z,76.70
2018-07-15T16:08:39.769Z,76.00
2018-07-15T16:10:43.361Z,77.10
2018-07-15T16:12:46.879Z,75.00
2018-07-15T16:14:50.520Z,75.20
2018-07-15T16:16:54.006Z,74.70
2018-07-15T16:18:57.817Z,71.60
2018-07-15T16:21:01.766Z,69.50
2018-07-15T16:23:05.683Z,69.40
2018-07-15T16:25:09.442Z,72.20
2018-07-15T16:27:13.254Z,75.60
2018-07-15T16:29:16.772Z,78.20
2018-07-15T16:31:20.315Z,77.50
2018-07-15T16:33:24.182Z,77.60
2018-07-15T16:35:29.710Z,77.50
2018-07-15T16:37:33.194Z,77.10
2018-07-15T16:39:37.151Z,78.50
2018-07-15T16:41:40.847Z,80.10
2018-07-15T16:43:44.493Z,80.80
2018-07-15T16:45:48.007Z,81.50
2018-07-15T16:47:51.710Z,80.00
2018-07-15T16:49:55.521Z,80.50
2018-07-15T16:51:58.985Z,79.10
2018-07-15T16:56:06.054Z,73.60
2018-07-15T16:58:09.572Z,72.60
2018-07-15T17:00:13.122Z,75.60
2018-07-15T17:02:16.639Z,74.70
2018-07-15T17:04:20.178Z,74.40
2018-07-15T17:06:23.670Z,73.50
2018-07-15T17:08:27.218Z,73.30
2018-07-15T17:10:30.753Z,74.60
2018-07-15T17:12:34.338Z,75.20
2018-07-15T17:14:37.840Z,76.00
2018-07-15T17:16:41.370Z,75.60
2018-07-15T17:18:44.883Z,77.20
2018-07-15T17:20:48.489Z,77.90
2018-07-15T17:22:51.998Z,78.10
2018-07-15T17:24:55.580Z,77.30
2018-07-15T17:26:59.052Z,77.50
2018-07-15T17:29:02.588Z,80.70
2018-07-15T17:31:06.420Z,83.40
2018-07-15T17:33:09.903Z,84.80
2018-07-15T17:35:13.550Z,85.10
2018-07-15T17:37:17.140Z,85.20
2018-07-15T17:39:20.623Z,85.20
2018-07-15T17:41:24.129Z,85.70
2018-07-15T17:43:27.626Z,85.60
2018-07-15T17:45:31.215Z,84.50
2018-07-15T17:47:34.768Z,83.40
2018-07-15T17:49:38.326Z,83.60
2018-07-15T17:51:41.919Z,83.60
2018-07-15T17:53:45.409Z,82.90
2018-07-15T17:55:48.985Z,82.20
2018-07-15T17:57:52.523Z,81.20
2018-07-15T17:59:56.055Z,80.40
2018-07-15T18:01:59.583Z,78.90
2018-07-15T18:04:03.114Z,79.60
2018-07-15T18:06:06.776Z,79.60
2018-07-15T18:08:10.293Z,79.40
2018-07-15T18:10:13.841Z,79.10
2018-07-15T18:12:17.391Z,80.50
2018-07-15T18:14:20.979Z,81.70
2018-07-15T18:16:24.764Z,82.90
2018-07-15T18:18:28.290Z,83.20
2018-07-15T18:20:31.877Z,83.80
2018-07-15T18:22:35.447Z,84.00
2018-07-15T18:24:39.101Z,84.60
2018-07-15T18:26:42.690Z,85.30
2018-07-15T18:28:46.243Z,87.00
2018-07-15T18:30:49.921Z,87.00
2018-07-15T18:32:53.688Z,87.60
2018-07-15T18:34:57.475Z,87.40
2018-07-15T18:37:01.055Z,86.90
2018-07-15T18:39:05.257Z,86.70
2018-07-15T18:41:08.818Z,87.00
2018-07-15T18:43:12.613Z,86.80
2018-07-15T18:45:16.269Z,86.80
2018-07-15T18:47:20.114Z,87.10
2018-07-15T18:51:27.147Z,87.60
2018-07-15T18:53:30.739Z,87.60
2018-07-15T18:55:34.207Z,87.70
2018-07-15T18:57:37.747Z,87.60
2018-07-15T18:59:41.287Z,87.30
2018-07-15T19:01:44.797Z,87.80
2018-07-15T19:03:48.292Z,87.90
2018-07-15T19:05:51.837Z,87.60
2018-07-15T19:07:55.447Z,87.90
2018-07-15T19:09:58.967Z,87.30
2018-07-15T19:12:02.509Z,87.00
2018-07-15T19:14:06.102Z,86.90
2018-07-15T19:18:12.925Z,87.50
2018-07-15T19:20:16.487Z,87.10
2018-07-15T19:22:20.144Z,87.30
2018-07-15T19:24:23.703Z,86.90
2018-07-15T19:26:27.316Z,86.90
2018-07-15T19:28:30.920Z,87.20
2018-07-15T19:30:34.575Z,87.20
2018-07-15T19:32:38.082Z,87.30
2018-07-15T19:34:41.622Z,87.20
2018-07-15T19:36:45.218Z,87.40
2018-07-15T19:38:48.761Z,87.30
2018-07-15T19:40:52.335Z,87.30
2018-07-15T19:42:55.973Z,87.50
2018-07-15T19:44:59.604Z,87.00
2018-07-15T19:47:03.184Z,86.60
2018-07-15T19:49:06.747Z,86.40
2018-07-15T19:51:10.312Z,86.80
2018-07-15T19:53:13.891Z,86.80
2018-07-15T19:55:17.408Z,87.10
2018-07-15T19:57:20.947Z,87.60
2018-07-15T19:59:24.497Z,87.40
2018-07-15T20:01:28.136Z,86.40
2018-07-15T20:03:31.652Z,86.60
2018-07-15T20:05:35.182Z,87.20
2018-07-15T20:07:38.691Z,87.00
2018-07-15T20:09:42.167Z,87.00
2018-07-15T20:11:45.712Z,86.70
2018-07-15T20:13:49.277Z,86.60
2018-07-15T20:15:52.787Z,87.20
2018-07-15T20:17:56.782Z,87.40
2018-07-15T20:20:00.396Z,88.00
2018-07-15T20:22:04.046Z,87.70
2018-07-15T20:24:07.644Z,87.50
2018-07-15T20:26:11.170Z,88.00
2018-07-15T20:28:14.696Z,87.70
2018-07-15T20:30:18.205Z,87.10
2018-07-15T20:32:21.726Z,87.90
2018-07-15T20:34:25.289Z,87.50
2018-07-15T20:36:28.858Z,88.00
2018-07-15T20:38:32.576Z,89.10
2018-07-15T20:42:39.528Z,90.40
2018-07-15T20:44:43.008Z,90.80
2018-07-15T20:46:49.547Z,90.50
2018-07-15T20:48:53.164Z,90.30
2018-07-15T20:50:56.664Z,90.60
2018-07-15T20:53:00.232Z,91.60
2018-07-15T20:55:03.732Z,91.40
2018-07-15T20:57:07.266Z,91.20
2018-07-15T20:59:10.788Z,90.90
2018-07-15T21:01:14.391Z,90.70
2018-07-15T21:03:17.938Z,90.40
2018-07-15T21:05:21.500Z,90.20
2018-07-15T21:09:28.226Z,89.90
2018-07-15T21:11:31.884Z,89.60
2018-07-15T21:13:35.379Z,89.40
2018-07-15T21:15:38.991Z,89.10
2018-07-15T21:17:42.649Z,89.50
2018-07-15T21:19:46.320Z,90.40
2018-07-15T21:21:49.882Z,90.50
2018-07-15T21:23:53.403Z,90.60
2018-07-15T21:25:56.939Z,90.80
2018-07-15T21:28:00.496Z,92.10
2018-07-15T21:30:04.193Z,91.60
2018-07-15T21:32:07.872Z,91.10
2018-07-15T21:34:11.466Z,90.80
2018-07-15T21:36:14.949Z,91.20
2018-07-15T21:40:21.679Z,91.40
2018-07-15T21:42:25.259Z,92.10
2018-07-15T21:44:28.839Z,92.00
2018-07-15T21:46:32.280Z,93.10
2018-07-15T21:48:35.901Z,93.20
2018-07-15T21:50:39.420Z,93.30
2018-07-15T21:52:42.931Z,94.00
2018-07-15T21:54:46.459Z,93.50
2018-07-15T21:56:49.950Z,93.00
2018-07-15T21:58:53.449Z,92.50
2018-07-15T22:00:56.956Z,92.50
2018-07-15T22:03:00.531Z,92.50
2018-07-15T22:05:04.354Z,92.40
2018-07-15T22:07:19.167Z,92.00
2018-07-15T22:09:33.962Z,91.80
2018-07-15T22:11:37.519Z,91.80
2018-07-15T22:13:41.060Z,92.30
2018-07-15T22:15:44.604Z,92.50
2018-07-15T22:17:48.130Z,92.00
2018-07-15T22:19:51.627Z,91.90
2018-07-15T22:21:55.130Z,92.30
2018-07-15T22:23:58.698Z,92.80
2018-07-15T22:26:02.214Z,92.80
2018-07-15T22:28:05.906Z,92.70
2018-07-15T22:30:09.432Z,92.40
2018-07-15T22:32:13.196Z,92.20
2018-07-15T22:34:16.719Z,91.90
2018-07-15T22:36:20.179Z,91.70
2018-07-15T22:38:23.705Z,91.50
2018-07-15T22:40:27.188Z,91.40
2018-07-15T22:42:30.698Z,91.30
2018-07-15T22:44:34.268Z,91.00
2018-07-15T22:46:37.842Z,91.10
2018-07-15T22:48:41.500Z,91.70
2018-07-15T22:50:45.092Z,92.20
2018-07-15T22:52:48.644Z,93.00
2018-07-15T22:54:52.175Z,93.20
2018-07-15T22:56:55.667Z,92.90
2018-07-15T22:58:59.219Z,93.10
2018-07-15T23:01:02.818Z,93.80
2018-07-15T23:03:06.374Z,95.60
2018-07-15T23:05:50.249Z,95.90
2018-07-15T23:07:53.827Z,95.10
2018-07-15T23:09:57.309Z,95.20
2018-07-15T23:12:01.018Z,94.70
2018-07-15T23:14:04.655Z,94.10
2018-07-15T23:16:08.435Z,93.70
2018-07-15T23:18:12.021Z,92.90
2018-07-15T23:20:15.552Z,92.10
2018-07-15T23:22:25.837Z,91.60
2018-07-15T23:24:29.320Z,91.20
2018-07-15T23:26:32.826Z,91.20
2018-07-15T23:28:36.343Z,91.20
2018-07-15T23:30:40.727Z,91.40
2018-07-15T23:32:44.491Z,91.50
2018-07-15T23:34:48.032Z,91.70
2018-07-15T23:36:51.542Z,92.10
2018-07-15T23:38:55.068Z,92.30
2018-07-15T23:40:58.566Z,92.40
2018-07-15T23:43:02.492Z,93.50
2018-07-15T23:47:09.818Z,93.10
2018-07-15T23:49:13.402Z,93.50
2018-07-15T23:51:16.918Z,93.90
2018-07-15T23:53:20.431Z,94.90
2018-07-15T23:55:24.269Z,95.10
2018-07-15T23:57:27.760Z,94.60
2018-07-15T23:59:31.256Z,94.20
